»·PEaware :: N100AH KPHX-KPRC

N100AH :: KPHX-KPRC

FLIGHT INFORMATION

Flight Status: Arrived
Operator: Privately registered:
United States
More flights under this callsign
Pilot: Anonymous 42100 (42100)
Aircraft: CESSNA 172 SKYHAWK
(C172)
More flights by this aircraft type
Origin: KPHX Phoenix Sky Harbor Intl
United States
Destination: KPRC Love
United States
More flights between these airports :: More routes between these airports
Route: PXR V257 DRK
File this flight plan on PilotEdge
Remarks:
Altitude:
(Current/Filed)
12,000ft
Speed:
(Current/Filed)
105kts
Departed: 05-Jul-23 07:04 PM
Arrived: 05-Jul-23 08:11 PM
Distance/Time
Traveled:
76nm/1:06
Distance/Time
To Go:
Arrived

Flight Plot

Page will automatically refresh every two minutes.

Flight plan parsing failed; only flown route is shown


Map Options




Map Legend


Flown Route
Filed Route
Departure Airport
Arrival Airport
Navaid (VOR, NDB)
Fix

Horizontal Profiles

Position Reports

Time Latitude Longitude Heading Altitude Ground
Speed
05-Jul-23 18:45 33.437934 -112.009786 354 1123ft 0kts
05-Jul-23 18:46 33.437934 -112.009786 354 1123ft 0kts
05-Jul-23 18:47 33.437934 -112.009786 354 1123ft 0kts
05-Jul-23 18:48 33.437934 -112.009786 354 1123ft 0kts
05-Jul-23 18:49 33.437934 -112.009786 354 1123ft 0kts
05-Jul-23 18:50 33.437934 -112.009786 354 1123ft 0kts
05-Jul-23 18:51 33.437934 -112.009786 354 1123ft 0kts
05-Jul-23 18:52 33.437934 -112.009786 354 1123ft 0kts
05-Jul-23 18:53 33.437934 -112.009786 354 1123ft 0kts
05-Jul-23 18:54 33.439012 -112.008690 90 1123ft 12kts
05-Jul-23 18:55 33.439725 -112.003948 93 1126ft 15kts
05-Jul-23 18:56 33.439756 -112.000565 91 1128ft 7kts
05-Jul-23 18:57 33.439741 -111.998699 86 1129ft 5kts
05-Jul-23 18:58 33.439707 -111.997088 86 1131ft 2kts
05-Jul-23 18:59 33.439744 -111.996657 85 1132ft 2kts
05-Jul-23 19:00 33.439769 -111.992922 80 1132ft 4kts
05-Jul-23 19:01 33.439868 -111.992577 60 1132ft 0kts
05-Jul-23 19:02 33.440178 -111.992365 7 1132ft 13kts
05-Jul-23 19:03 33.440988 -112.009145 269 1437ft 83kts
05-Jul-23 19:04 33.454632 -112.025683 350 2260ft 85kts
05-Jul-23 19:05 33.477968 -112.028587 350 2946ft 84kts
05-Jul-23 19:06 33.501121 -112.031721 350 3586ft 83kts
05-Jul-23 19:07 33.524158 -112.035064 350 4192ft 83kts
05-Jul-23 19:08 33.546705 -112.038520 350 4728ft 81kts
05-Jul-23 19:09 33.568978 -112.042097 350 5215ft 80kts
05-Jul-23 19:10 33.591121 -112.045802 350 5678ft 80kts
05-Jul-23 19:11 33.613166 -112.049617 350 6118ft 80kts
05-Jul-23 19:12 33.635141 -112.053499 350 6536ft 80kts
05-Jul-23 19:13 33.657038 -112.057445 350 6934ft 79kts
05-Jul-23 19:14 33.678948 -112.061473 350 7313ft 79kts
05-Jul-23 19:15 33.700716 -112.065541 350 7672ft 79kts
05-Jul-23 19:16 33.722442 -112.069661 350 8014ft 79kts
05-Jul-23 19:17 33.745265 -112.074075 350 8483ft 84kts
05-Jul-23 19:18 33.768255 -112.078596 350 8964ft 83kts
05-Jul-23 19:19 33.791450 -112.078280 4 9420ft 83kts
05-Jul-23 19:20 33.814479 -112.076449 4 9852ft 83kts
05-Jul-23 19:21 33.837495 -112.074642 359 10263ft 83kts
05-Jul-23 19:22 33.860109 -112.079460 348 10652ft 82kts
05-Jul-23 19:23 33.882559 -112.084985 348 11022ft 82kts
05-Jul-23 19:24 33.904893 -112.090616 348 11372ft 82kts
05-Jul-23 19:25 33.927261 -112.096310 348 11705ft 82kts
05-Jul-23 19:26 33.949447 -112.101982 348 12016ft 82kts
05-Jul-23 19:27 33.975875 -112.108774 348 12039ft 109kts
05-Jul-23 19:28 34.006699 -112.116666 348 12038ft 114kts
05-Jul-23 19:29 34.037137 -112.124479 348 12046ft 111kts
05-Jul-23 19:30 34.069382 -112.132757 348 11796ft 124kts
05-Jul-23 19:31 34.101984 -112.141150 348 11754ft 112kts
05-Jul-23 19:32 34.131816 -112.145644 358 11806ft 105kts
05-Jul-23 19:33 34.160591 -112.147002 358 11856ft 103kts
05-Jul-23 19:34 34.189101 -112.148284 358 11902ft 103kts
05-Jul-23 19:35 34.218690 -112.149595 358 12026ft 107kts
05-Jul-23 19:36 34.249048 -112.150909 358 12075ft 115kts
05-Jul-23 19:37 34.282389 -112.152363 358 12007ft 121kts
05-Jul-23 19:38 34.315856 -112.153837 358 12008ft 120kts
05-Jul-23 19:40 34.349121 -112.155302 358 12008ft 119kts
05-Jul-23 19:41 34.382301 -112.156764 358 12008ft 119kts
05-Jul-23 19:42 34.415534 -112.158230 358 12008ft 119kts
05-Jul-23 19:43 34.448851 -112.159618 359 12008ft 119kts
05-Jul-23 19:44 34.482077 -112.161085 358 12008ft 119kts
05-Jul-23 19:45 34.515364 -112.162558 358 12008ft 119kts
05-Jul-23 19:46 34.548617 -112.164097 358 12008ft 120kts
05-Jul-23 19:47 34.581889 -112.165593 358 12007ft 120kts
05-Jul-23 19:48 34.615225 -112.167071 358 12003ft 120kts
05-Jul-23 19:49 34.648537 -112.168548 358 11999ft 120kts
05-Jul-23 19:50 34.681917 -112.170030 358 11996ft 120kts
05-Jul-23 19:51 34.715325 -112.171506 358 11993ft 120kts
05-Jul-23 19:52 34.748619 -112.172971 358 11987ft 120kts
05-Jul-23 19:53 34.784370 -112.174534 358 11485ft 139kts
05-Jul-23 19:54 34.822851 -112.176227 358 10485ft 138kts
05-Jul-23 19:55 34.861022 -112.177922 358 9340ft 136kts
05-Jul-23 19:56 34.894695 -112.179428 6 9091ft 106kts
05-Jul-23 19:57 34.923012 -112.172441 29 9219ft 105kts
05-Jul-23 19:58 34.914643 -112.159918 220 9266ft 96kts
05-Jul-23 19:59 34.891984 -112.174833 195 9384ft 95kts
05-Jul-23 20:00 34.869151 -112.190895 223 9453ft 99kts
05-Jul-23 20:01 34.848285 -112.213717 219 9387ft 110kts
05-Jul-23 20:02 34.824927 -112.238507 216 8983ft 111kts
05-Jul-23 20:03 34.801528 -112.263328 220 8480ft 113kts
05-Jul-23 20:04 34.778048 -112.287975 219 8030ft 109kts
05-Jul-23 20:05 34.757931 -112.309269 219 7516ft 92kts
05-Jul-23 20:06 34.738901 -112.329708 219 7022ft 90kts
05-Jul-23 20:07 34.719750 -112.349954 220 6505ft 92kts
05-Jul-23 20:08 34.700497 -112.370518 221 5988ft 92kts
05-Jul-23 20:09 34.681345 -112.390879 219 5495ft 91kts
05-Jul-23 20:09 34.665487 -112.407846 219 5102ft 87kts
05-Jul-23 20:11 34.653330 -112.418917 218 4999ft 22kts
05-Jul-23 20:12 34.650641 -112.420834 132 5011ft 0kts
05-Jul-23 20:13 34.650641 -112.420834 132 5011ft 0kts

Navigation Log

Ident Type
Flight plan parsing failed, navigation log unavailable